createdAt,value
2023-08-03T00:04:41.808Z,77.40
2023-08-03T00:09:47.321Z,76.90
2023-08-03T00:14:51.922Z,77.00
2023-08-03T00:19:56.708Z,77.30
2023-08-03T00:25:00.388Z,77.20
2023-08-03T00:30:04.086Z,77.30
2023-08-03T00:35:10.430Z,77.00
2023-08-03T00:40:14.834Z,77.00
2023-08-03T00:45:18.491Z,76.80
2023-08-03T00:50:23.860Z,77.00
2023-08-03T00:55:27.310Z,76.90
2023-08-03T01:00:31.534Z,76.80
2023-08-03T01:05:36.291Z,76.70
2023-08-03T01:10:39.849Z,77.00
2023-08-03T01:15:43.391Z,76.90
2023-08-03T01:20:49.172Z,77.00
2023-08-03T01:25:53.932Z,77.10
2023-08-03T01:30:57.792Z,77.00
2023-08-03T01:36:01.330Z,76.90
2023-08-03T01:41:06.331Z,76.70
2023-08-03T01:46:09.766Z,77.00
2023-08-03T01:51:13.259Z,76.90
2023-08-03T01:56:19.657Z,76.50
2023-08-03T02:01:23.147Z,76.80
2023-08-03T02:06:27.374Z,77.10
2023-08-03T02:11:32.448Z,76.80
2023-08-03T02:16:35.935Z,76.50
2023-08-03T02:21:39.415Z,77.10
2023-08-03T02:26:44.266Z,76.90
2023-08-03T02:31:47.715Z,76.90
2023-08-03T02:36:51.556Z,76.70
2023-08-03T02:41:57.144Z,76.90
2023-08-03T02:47:06.344Z,77.00
2023-08-03T02:52:10.354Z,76.90
2023-08-03T02:57:25.015Z,76.80
2023-08-03T03:02:30.450Z,76.70
2023-08-03T03:07:35.611Z,76.70
2023-08-03T03:12:41.839Z,76.20
2023-08-03T03:17:45.505Z,76.70
2023-08-03T03:22:50.192Z,77.00
2023-08-03T03:27:55.124Z,76.40
2023-08-03T03:32:59.703Z,76.00
2023-08-03T03:38:03.939Z,75.80
2023-08-03T03:43:08.774Z,75.60
2023-08-03T03:48:12.649Z,75.80
2023-08-03T03:53:16.661Z,75.60
2023-08-03T03:58:26.113Z,75.70
2023-08-03T04:03:29.764Z,76.90
2023-08-03T04:08:38.628Z,76.60
2023-08-03T04:13:43.449Z,76.70
2023-08-03T04:18:46.842Z,76.30
2023-08-03T04:23:51.502Z,76.10
2023-08-03T04:28:56.444Z,76.40
2023-08-03T04:34:01.701Z,76.10
2023-08-03T04:39:07.027Z,76.20
2023-08-03T04:44:11.952Z,76.20
2023-08-03T04:49:16.044Z,76.00
2023-08-03T04:54:29.205Z,76.00
2023-08-03T04:59:34.178Z,76.00
2023-08-03T05:04:38.127Z,76.00
2023-08-03T05:09:42.625Z,76.00
2023-08-03T05:14:47.590Z,76.00
2023-08-03T05:19:51.879Z,76.00
2023-08-03T05:24:55.394Z,76.10
2023-08-03T05:30:00.450Z,76.10
2023-08-03T05:35:04.948Z,76.10
2023-08-03T05:40:09.872Z,76.30
2023-08-03T05:45:36.672Z,76.30
2023-08-03T05:50:45.196Z,76.30
2023-08-03T05:56:01.633Z,76.40
2023-08-03T06:01:13.831Z,76.40
2023-08-03T06:06:21.833Z,76.40
2023-08-03T06:11:28.004Z,76.40
2023-08-03T06:16:33.214Z,76.60
2023-08-03T06:21:36.722Z,75.90
2023-08-03T06:26:40.269Z,74.30
2023-08-03T06:31:45.264Z,74.00
2023-08-03T06:36:49.961Z,73.20
2023-08-03T06:41:53.488Z,73.30
2023-08-03T06:47:00.689Z,73.30
2023-08-03T06:52:04.912Z,73.10
2023-08-03T06:57:08.974Z,72.90
2023-08-03T07:02:13.784Z,72.70
2023-08-03T07:07:17.395Z,72.70
2023-08-03T07:12:20.858Z,72.70
2023-08-03T07:17:26.217Z,73.30
2023-08-03T07:22:29.786Z,74.00
2023-08-03T07:27:33.716Z,74.20
2023-08-03T07:32:39.186Z,74.30
2023-08-03T07:37:42.762Z,74.40
2023-08-03T07:42:46.219Z,74.50
2023-08-03T07:47:51.265Z,74.80
2023-08-03T07:52:54.775Z,75.10
2023-08-03T07:57:58.236Z,75.20
2023-08-03T08:03:03.746Z,75.40
2023-08-03T08:08:07.344Z,75.50
2023-08-03T08:13:10.792Z,75.90
2023-08-03T08:18:15.695Z,76.10
2023-08-03T08:23:19.231Z,76.10
2023-08-03T08:28:22.928Z,76.30
2023-08-03T08:33:27.831Z,76.40
2023-08-03T08:38:31.408Z,76.50
2023-08-03T08:43:35.020Z,76.60
2023-08-03T09:09:15.939Z,77.00
2023-08-03T09:14:19.419Z,77.00
2023-08-03T09:25:08.956Z,77.80
2023-08-03T09:30:15.840Z,77.10
2023-08-03T09:35:23.472Z,77.00
2023-08-03T09:40:27.461Z,77.10
2023-08-03T09:45:34.257Z,76.10
2023-08-03T09:50:40.090Z,75.10
2023-08-03T09:55:50.866Z,74.30
2023-08-03T10:00:59.192Z,73.60
2023-08-03T10:06:13.804Z,73.80
2023-08-03T10:11:17.562Z,74.00
2023-08-03T10:16:22.072Z,73.40
2023-08-03T10:21:27.455Z,72.20
2023-08-03T10:26:30.976Z,70.80
2023-08-03T10:31:35.368Z,70.10
2023-08-03T10:36:50.730Z,69.40
2023-08-03T10:41:54.826Z,69.30
2023-08-03T10:46:59.492Z,69.30
2023-08-03T10:52:24.477Z,70.00
2023-08-03T10:57:30.902Z,70.30
2023-08-03T11:02:37.911Z,70.90
2023-08-03T11:07:47.026Z,70.60
2023-08-03T11:12:53.761Z,70.30
2023-08-03T11:17:57.241Z,69.80
2023-08-03T11:23:02.231Z,70.20
2023-08-03T11:28:06.075Z,71.00
2023-08-03T11:33:09.618Z,71.30
2023-08-03T11:38:14.521Z,71.20
2023-08-03T11:43:19.969Z,71.40
2023-08-03T11:48:27.115Z,71.50
2023-08-03T11:53:32.190Z,71.60
2023-08-03T11:58:37.369Z,71.00
2023-08-03T12:03:41.216Z,68.40
2023-08-03T12:08:48.053Z,67.50
2023-08-03T12:13:51.631Z,67.30
2023-08-03T12:18:56.107Z,67.10
2023-08-03T12:24:00.986Z,65.70
2023-08-03T12:34:11.532Z,66.70
2023-08-03T12:39:19.055Z,67.00
2023-08-03T12:44:22.538Z,67.10
2023-08-03T12:49:25.985Z,67.30
2023-08-03T12:54:31.560Z,67.20
2023-08-03T12:59:36.314Z,67.40
2023-08-03T13:04:40.287Z,67.50
2023-08-03T13:09:45.357Z,67.70
2023-08-03T13:14:48.866Z,67.80
2023-08-03T13:19:52.353Z,67.90
2023-08-03T13:24:57.210Z,68.90
2023-08-03T13:30:00.639Z,69.50
2023-08-03T13:35:04.160Z,70.00
2023-08-03T13:40:10.909Z,70.70
2023-08-03T13:45:14.541Z,71.70
2023-08-03T13:50:18.187Z,70.90
2023-08-03T13:55:23.072Z,70.60
2023-08-03T14:00:26.653Z,70.80
2023-08-03T14:10:38.225Z,70.70
2023-08-03T14:15:41.801Z,70.30
2023-08-03T14:25:53.020Z,69.40
2023-08-03T14:30:56.590Z,69.10
2023-08-03T14:36:00.703Z,68.70
2023-08-03T14:41:05.487Z,69.10
2023-08-03T14:46:09.253Z,69.40
2023-08-03T15:01:28.863Z,69.50
2023-08-03T15:06:33.733Z,69.70
2023-08-03T15:11:45.610Z,69.70
2023-08-03T15:16:53.883Z,69.90
2023-08-03T15:22:00.258Z,70.10
2023-08-03T15:27:08.543Z,69.00
2023-08-03T15:37:34.755Z,68.90
2023-08-03T15:42:43.421Z,68.70
2023-08-03T15:53:15.952Z,68.70
2023-08-03T15:58:20.907Z,69.00
2023-08-03T16:03:25.056Z,68.30
2023-08-03T16:08:28.620Z,68.00
2023-08-03T16:13:34.792Z,68.10
2023-08-03T16:18:38.332Z,68.50
2023-08-03T16:23:41.746Z,68.70
2023-08-03T16:28:46.799Z,68.50
2023-08-03T16:33:51.903Z,68.60
2023-08-03T16:38:55.869Z,68.70
2023-08-03T16:44:00.715Z,69.50
2023-08-03T16:49:04.956Z,69.90
2023-08-03T16:54:08.452Z,70.00
2023-08-03T16:59:13.629Z,70.50
2023-08-03T17:04:17.145Z,70.90
2023-08-03T17:09:20.806Z,72.60
2023-08-03T17:14:26.929Z,73.10
2023-08-03T17:19:30.508Z,73.20
2023-08-03T17:24:34.091Z,73.50
2023-08-03T17:29:39.010Z,73.70
2023-08-03T17:34:42.612Z,73.70
2023-08-03T17:39:46.206Z,74.00
2023-08-03T17:44:51.131Z,73.90
2023-08-03T17:49:55.110Z,74.10
2023-08-03T17:54:58.644Z,74.10
2023-08-03T18:00:03.642Z,74.20
2023-08-03T18:05:08.995Z,74.30
2023-08-03T18:10:12.747Z,74.40
2023-08-03T18:15:17.952Z,74.40
2023-08-03T18:20:21.461Z,74.50
2023-08-03T18:25:25.752Z,74.50
2023-08-03T18:30:30.630Z,74.70
2023-08-03T18:35:34.905Z,74.70
2023-08-03T18:40:38.309Z,74.80
2023-08-03T18:45:43.218Z,74.70
2023-08-03T18:50:46.907Z,74.90
2023-08-03T18:55:50.336Z,75.50
2023-08-03T19:00:55.768Z,75.90
2023-08-03T19:06:02.470Z,76.30
2023-08-03T19:11:06.182Z,76.40
2023-08-03T19:16:11.237Z,76.30
2023-08-03T19:21:14.889Z,76.40
2023-08-03T19:26:19.573Z,76.00
2023-08-03T19:31:24.578Z,76.40
2023-08-03T19:36:28.089Z,76.00
2023-08-03T19:41:31.554Z,76.00
2023-08-03T19:46:36.424Z,76.10
2023-08-03T19:56:46.300Z,76.20
2023-08-03T20:12:16.931Z,76.50
2023-08-03T20:22:28.342Z,76.60
2023-08-03T20:32:46.340Z,76.70
2023-08-03T20:38:06.724Z,76.70
2023-08-03T20:53:25.234Z,76.90
2023-08-03T20:58:33.193Z,77.20
2023-08-03T21:03:38.954Z,77.10
2023-08-03T21:08:42.907Z,77.10
2023-08-03T21:13:46.442Z,77.20
2023-08-03T21:23:57.833Z,77.20
2023-08-03T21:29:01.354Z,77.10
2023-08-03T21:34:06.222Z,77.10
2023-08-03T21:39:09.931Z,77.10
2023-08-03T21:44:13.462Z,77.00
2023-08-03T21:49:18.371Z,77.10
2023-08-03T21:54:21.856Z,77.20
2023-08-03T21:59:25.436Z,77.40
2023-08-03T22:04:30.287Z,77.30
2023-08-03T22:09:33.830Z,78.70
2023-08-03T22:14:37.414Z,77.90
2023-08-03T22:19:42.320Z,78.80
2023-08-03T22:24:45.900Z,78.70
2023-08-03T22:29:49.424Z,78.70
2023-08-03T22:34:58.028Z,78.50
2023-08-03T22:40:04.127Z,78.50
2023-08-03T22:45:09.713Z,79.10
2023-08-03T22:50:14.956Z,78.60
2023-08-03T22:55:19.052Z,79.00
2023-08-03T23:00:22.617Z,79.00
2023-08-03T23:05:27.669Z,78.90
2023-08-03T23:10:31.491Z,79.40
2023-08-03T23:15:38.671Z,79.10
2023-08-03T23:20:43.451Z,79.10
2023-08-03T23:25:46.849Z,79.80
2023-08-03T23:30:50.337Z,79.40
2023-08-03T23:35:55.222Z,79.60
2023-08-03T23:40:58.759Z,79.80
2023-08-03T23:46:02.273Z,80.60
2023-08-03T23:51:07.350Z,80.10
2023-08-03T23:56:10.816Z,80.60
